Time;durP1;ratioP1;P1;durP2;ratioP2;P2;SDS_P1;SDS_P2;PMS_P1;PMS_P2;Temp;Humidity;BMP_temperature;BMP_pressure;BME280_temperature;BME280_humidity;BME280_pressure;Samples;Min_cycle;Max_cycle;Signal;HPM_P1;HPM_P2
2022/06/26 00:01:35;;;;;;;;;;;;;;;;;;4956011;28;19969;-75
2022/06/26 00:04:00;;;;;;;;;;;;;;;;;;4924912;28;20033;-75
2022/06/26 00:06:26;;;;;;;;;;;;;;;;;;4921005;29;19918;-75
2022/06/26 00:08:51;;;;;;;;;;;;;;;;;;4921134;29;19919;-75
2022/06/26 00:11:17;;;;;;;;;;;;;;;;;;4938049;29;19926;-74
2022/06/26 00:13:42;;;;;;;;;;;;;;;;;;4937881;29;19923;-75
2022/06/26 00:16:08;;;;;;;;;;;;;;;;;;4935408;29;20377;-75
2022/06/26 00:18:33;;;;;;;;;;;;;;;;;;4935296;29;19946;-75
2022/06/26 00:20:58;;;;;;;;;;;;;;;;;;4935380;29;20348;-75
2022/06/26 00:23:24;;;;;;;;;;;;;;;;;;4934569;29;19919;-75
2022/06/26 00:25:49;;;;;;;;;;;;;;;;;;4933898;29;19924;-75
2022/06/26 00:28:15;;;;;;;;;;;;;;;;;;4918237;28;19978;-75
2022/06/26 00:30:40;;;;;;;;;;;;;;;;;;4933802;29;19919;-75
2022/06/26 00:33:05;;;;;;;;;;;;;;;;;;4918200;29;19925;-75
2022/06/26 00:35:31;;;;;;;;;;;;;;;;;;4917989;29;19918;-75
2022/06/26 00:37:56;;;;;;;;;;;;;;;;;;4917942;29;19922;-75
2022/06/26 00:40:22;;;;;;;;;;;;;;;;;;4934043;29;19925;-75
2022/06/26 00:42:47;;;;;;;;;;;;;;;;;;4933736;29;19923;-75
2022/06/26 00:45:13;;;;;;;;;;;;;;;;;;4934076;29;20000;-75
2022/06/26 00:47:38;;;;;;;;;;;;;;;;;;4918807;28;20387;-75
2022/06/26 00:50:05;;;;;;;;;;;;;;;;;;4937413;29;19919;-75
2022/06/26 00:52:32;;;;;;;;;;;;;;;;;;4936736;29;20005;-75
2022/06/26 00:54:58;;;;;;;;;;;;;;;;;;4936827;29;19914;-75
2022/06/26 00:57:23;;;;;;;;;;;;;;;;;;4936932;29;19930;-75
2022/06/26 00:59:49;;;;;;;;;;;;;;;;;;4935706;29;20309;-75
2022/06/26 01:02:15;;;;;;;;;;;;;;;;;;4919826;29;19954;-75
2022/06/26 01:04:40;;;;;;;;;;;;;;;;;;4935882;29;19958;-75
2022/06/26 01:07:06;;;;;;;;;;;;;;;;;;4935911;29;19918;-75
2022/06/26 01:09:31;;;;;;;;;;;;;;;;;;4919648;29;20373;-75
2022/06/26 01:11:57;;;;;;;;;;;;;;;;;;4919746;29;20350;-75
2022/06/26 01:14:22;;;;;;;;;;;;;;;;;;4919745;29;19965;-75
2022/06/26 01:16:49;;;;;;;;;;;;;;;;;;4936617;29;19982;-75
2022/06/26 01:19:16;;;;;;;;;;;;;;;;;;4919584;28;19923;-75
2022/06/26 01:21:41;;;;;;;;;;;;;;;;;;4919624;29;19926;-75
2022/06/26 01:24:07;;;;;;;;;;;;;;;;;;4935095;29;20292;-75
2022/06/26 01:26:33;;;;;;;;;;;;;;;;;;4935421;29;19923;-75
2022/06/26 01:28:58;;;;;;;;;;;;;;;;;;4936348;29;20017;-75
2022/06/26 01:31:24;;;;;;;;;;;;;;;;;;4918876;29;19919;-74
2022/06/26 01:33:53;;;;;;;;;;;;;;;;;;4935353;29;19965;-75
2022/06/26 01:36:18;;;;;;;;;;;;;;;;;;4935490;29;19926;-75
2022/06/26 01:38:44;;;;;;;;;;;;;;;;;;4935335;29;19923;-74
2022/06/26 01:41:10;;;;;;;;;;;;;;;;;;4935184;29;19962;-74
2022/06/26 01:43:37;;;;;;;;;;;;;;;;;;4934950;29;19918;-75
2022/06/26 01:46:03;;;;;;;;;;;;;;;;;;4936270;29;19919;-75
2022/06/26 01:48:31;;;;;;;;;;;;;;;;;;4935345;29;19915;-75
2022/06/26 01:50:59;;;;;;;;;;;;;;;;;;4935407;29;20005;-75
2022/06/26 01:53:25;;;;;;;;;;;;;;;;;;4934331;29;19925;-75
2022/06/26 01:55:50;;;;;;;;;;;;;;;;;;4934969;29;19918;-75
2022/06/26 01:58:23;;;;;;;;;;;;;;;;;;4937720;29;19929;-74
2022/06/26 02:00:50;;;;;;;;;;;;;;;;;;4939144;29;19919;-75
2022/06/26 02:03:18;;;;;;;;;;;;;;;;;;4923609;29;19918;-75
2022/06/26 02:05:45;;;;;;;;;;;;;;;;;;4923535;29;19915;-75
2022/06/26 02:08:12;;;;;;;;;;;;;;;;;;4938853;29;19918;-75
2022/06/26 02:13:36;;;;;;;;;;;;;;;;;;4938909;28;19926;-75
2022/06/26 02:16:08;;;;;;;;;;;;;;;;;;4938889;29;19922;-75
2022/06/26 02:18:34;;;;;;;;;;;;;;;;;;4938477;29;19970;-75
2022/06/26 02:21:00;;;;;;;;;;;;;;;;;;4938840;28;19919;-75
2022/06/26 02:23:25;;;;;;;;;;;;;;;;;;4922232;29;19922;-75
2022/06/26 02:25:52;;;;;;;;;;;;;;;;;;4923146;29;20296;-75
2022/06/26 02:28:17;;;;;;;;;;;;;;;;;;4922519;29;20022;-75
2022/06/26 02:30:43;;;;;;;;;;;;;;;;;;4938575;29;19918;-74
2022/06/26 02:33:08;;;;;;;;;;;;;;;;;;4938581;29;19934;-75
2022/06/26 02:35:34;;;;;;;;;;;;;;;;;;4938117;29;19927;-75
2022/06/26 02:38:00;;;;;;;;;;;;;;;;;;4938475;29;20568;-74
2022/06/26 02:40:26;;;;;;;;;;;;;;;;;;4938095;29;20292;-75
2022/06/26 02:42:53;;;;;;;;;;;;;;;;;;4938596;28;19942;-75
2022/06/26 02:45:18;;;;;;;;;;;;;;;;;;4937779;29;20278;-74
2022/06/26 02:47:44;;;;;;;;;;;;;;;;;;4938529;28;19919;-75
2022/06/26 02:50:12;;;;;;;;;;;;;;;;;;4938305;29;19919;-74
2022/06/26 02:52:38;;;;;;;;;;;;;;;;;;4922698;29;19941;-74
2022/06/26 02:55:04;;;;;;;;;;;;;;;;;;4938062;28;19925;-74
2022/06/26 02:57:30;;;;;;;;;;;;;;;;;;4938281;28;19966;-74
2022/06/26 02:59:56;;;;;;;;;;;;;;;;;;4921467;29;19919;-74
2022/06/26 03:02:24;;;;;;;;;;;;;;;;;;4938034;28;20384;-74
2022/06/26 03:05:01;;;;;;;;;;;;;;;;;;4938053;29;19919;-74
2022/06/26 03:07:27;;;;;;;;;;;;;;;;;;4938195;29;19966;-74
2022/06/26 03:09:54;;;;;;;;;;;;;;;;;;4937827;29;20380;-75
2022/06/26 03:12:19;;;;;;;;;;;;;;;;;;4938029;29;19919;-74
2022/06/26 03:14:45;;;;;;;;;;;;;;;;;;4937823;29;19974;-75
2022/06/26 03:17:10;;;;;;;;;;;;;;;;;;4937592;29;19918;-75
2022/06/26 03:19:36;;;;;;;;;;;;;;;;;;4937852;29;19965;-75
2022/06/26 03:22:03;;;;;;;;;;;;;;;;;;4937721;29;19962;-74
2022/06/26 03:24:29;;;;;;;;;;;;;;;;;;4937569;29;19977;-74
2022/06/26 03:26:54;;;;;;;;;;;;;;;;;;4937695;29;19919;-74
2022/06/26 03:29:19;;;;;;;;;;;;;;;;;;4921124;29;19946;-74
2022/06/26 03:31:45;;;;;;;;;;;;;;;;;;4921574;29;19926;-74
2022/06/26 03:34:12;;;;;;;;;;;;;;;;;;4938943;29;19924;-74
2022/06/26 03:36:42;;;;;;;;;;;;;;;;;;4956895;29;20423;-74
2022/06/26 03:39:08;;;;;;;;;;;;;;;;;;4956492;29;19923;-74
2022/06/26 03:41:36;;;;;;;;;;;;;;;;;;4957415;28;19922;-75
2022/06/26 03:44:01;;;;;;;;;;;;;;;;;;4956370;29;20379;-74
2022/06/26 03:46:27;;;;;;;;;;;;;;;;;;4945814;29;20025;-74
2022/06/26 03:48:52;;;;;;;;;;;;;;;;;;4937437;29;20357;-74
2022/06/26 03:51:18;;;;;;;;;;;;;;;;;;4937253;29;19919;-74
2022/06/26 03:53:43;;;;;;;;;;;;;;;;;;4931555;29;19918;-75
2022/06/26 03:56:13;;;;;;;;;;;;;;;;;;4956225;29;19918;-75
2022/06/26 03:58:39;;;;;;;;;;;;;;;;;;4940127;28;20216;-74
2022/06/26 04:01:06;;;;;;;;;;;;;;;;;;4956020;29;19958;-74
2022/06/26 04:03:32;;;;;;;;;;;;;;;;;;4956259;28;19954;-74
2022/06/26 04:05:59;;;;;;;;;;;;;;;;;;4954407;28;19918;-74
2022/06/26 04:08:24;;;;;;;;;;;;;;;;;;4953763;29;19918;-74
2022/06/26 04:11:02;;;;;;;;;;;;;;;;;;4951893;28;19945;-74
2022/06/26 04:13:30;;;;;;;;;;;;;;;;;;4953044;28;19922;-74
2022/06/26 04:15:56;;;;;;;;;;;;;;;;;;4953741;29;19925;-74
2022/06/26 04:18:21;;;;;;;;;;;;;;;;;;4953342;28;19934;-74
2022/06/26 04:20:47;;;;;;;;;;;;;;;;;;4937118;29;20041;-75
2022/06/26 04:23:13;;;;;;;;;;;;;;;;;;4946187;28;19919;-74
2022/06/26 04:25:40;;;;;;;;;;;;;;;;;;4934158;29;19937;-74
2022/06/26 04:28:06;;;;;;;;;;;;;;;;;;4933429;29;20416;-75
2022/06/26 04:30:34;;;;;;;;;;;;;;;;;;4918826;29;19919;-76
2022/06/26 04:33:00;;;;;;;;;;;;;;;;;;4934109;29;20377;-75
2022/06/26 04:35:26;;;;;;;;;;;;;;;;;;4914813;29;19926;-75
2022/06/26 04:37:52;;;;;;;;;;;;;;;;;;4916720;29;20420;-75
2022/06/26 04:40:19;;;;;;;;;;;;;;;;;;4917325;29;19919;-75
2022/06/26 04:42:45;;;;;;;;;;;;;;;;;;4916896;29;20273;-75
2022/06/26 04:45:11;;;;;;;;;;;;;;;;;;4917086;29;19919;-75
2022/06/26 04:47:37;;;;;;;;;;;;;;;;;;4917164;29;19919;-75
2022/06/26 04:50:08;;;;;;;;;;;;;;;;;;4917476;29;19926;-75
2022/06/26 04:52:34;;;;;;;;;;;;;;;;;;4917096;29;19919;-75
2022/06/26 04:54:59;;;;;;;;;;;;;;;;;;4917169;29;19923;-75
2022/06/26 04:57:25;;;;;;;;;;;;;;;;;;4916693;28;19923;-75
2022/06/26 04:59:51;;;;;;;;;;;;;;;;;;4916913;29;19919;-74
2022/06/26 05:02:16;;;;;;;;;;;;;;;;;;4916841;29;19919;-75
2022/06/26 05:04:51;;;;;;;;;;;;;;;;;;4929724;29;19916;-75
2022/06/26 05:07:19;;;;;;;;;;;;;;;;;;4918397;29;19969;-75
2022/06/26 05:09:45;;;;;;;;;;;;;;;;;;4916550;29;20266;-75
2022/06/26 05:12:11;;;;;;;;;;;;;;;;;;4932704;29;19923;-75
2022/06/26 05:14:55;;;;;;;;;;;;;;;;;;4917974;29;19926;-74
2022/06/26 05:17:31;;;;;;;;;;;;;;;;;;4931030;29;20010;-75
2022/06/26 05:19:57;;;;;;;;;;;;;;;;;;4932117;28;19954;-75
2022/06/26 05:22:23;;;;;;;;;;;;;;;;;;4933038;28;19923;-75
2022/06/26 05:24:49;;;;;;;;;;;;;;;;;;4935433;29;20066;-75
2022/06/26 05:27:14;;;;;;;;;;;;;;;;;;4935467;29;19918;-75
2022/06/26 05:29:40;;;;;;;;;;;;;;;;;;4935292;29;19923;-75
2022/06/26 05:32:05;;;;;;;;;;;;;;;;;;4934820;29;20392;-75
2022/06/26 05:34:31;;;;;;;;;;;;;;;;;;4919349;29;19918;-76
2022/06/26 05:36:58;;;;;;;;;;;;;;;;;;4935210;29;19919;-75
2022/06/26 05:39:24;;;;;;;;;;;;;;;;;;4935018;29;20366;-76
2022/06/26 05:41:50;;;;;;;;;;;;;;;;;;4936235;29;19989;-76
2022/06/26 05:44:15;;;;;;;;;;;;;;;;;;4935170;29;20025;-76
2022/06/26 05:46:46;;;;;;;;;;;;;;;;;;4935375;29;20424;-76
2022/06/26 05:49:37;;;;;;;;;;;;;;;;;;4935612;29;19918;-76
2022/06/26 05:52:11;;;;;;;;;;;;;;;;;;4919186;29;19961;-76
2022/06/26 05:55:06;;;;;;;;;;;;;;;;;;4917675;29;20010;-76
2022/06/26 05:57:49;;;;;;;;;;;;;;;;;;4952956;29;19996;-76
2022/06/26 06:00:34;;;;;;;;;;;;;;;;;;4955394;29;19925;-76
2022/06/26 06:03:00;;;;;;;;;;;;;;;;;;4954222;28;20016;-76
2022/06/26 06:05:25;;;;;;;;;;;;;;;;;;4954230;28;19918;-76
2022/06/26 06:07:52;;;;;;;;;;;;;;;;;;4953483;28;19918;-76
2022/06/26 06:10:19;;;;;;;;;;;;;;;;;;4953984;29;19954;-75
2022/06/26 06:12:48;;;;;;;;;;;;;;;;;;4953465;29;19919;-75
2022/06/26 06:15:14;;;;;;;;;;;;;;;;;;4954204;29;19925;-75
2022/06/26 06:17:44;;;;;;;;;;;;;;;;;;4953896;28;19923;-75
2022/06/26 06:20:10;;;;;;;;;;;;;;;;;;4954286;28;19918;-75
2022/06/26 06:22:44;;;;;;;;;;;;;;;;;;4953862;29;19922;-75
2022/06/26 06:25:11;;;;;;;;;;;;;;;;;;4915631;29;19923;-75
2022/06/26 06:27:37;;;;;;;;;;;;;;;;;;4915990;29;19919;-77
2022/06/26 06:30:10;;;;;;;;;;;;;;;;;;4916268;29;19923;-76
2022/06/26 06:32:36;;;;;;;;;;;;;;;;;;4915947;29;19919;-75
2022/06/26 06:35:04;;;;;;;;;;;;;;;;;;4917247;29;20294;-77
2022/06/26 06:37:33;;;;;;;;;;;;;;;;;;4918454;29;19934;-77
2022/06/26 06:40:01;;;;;;;;;;;;;;;;;;4916723;29;19930;-77
2022/06/26 06:42:31;;;;;;;;;;;;;;;;;;4917165;29;19930;-77
2022/06/26 06:45:08;;;;;;;;;;;;;;;;;;4921370;29;19926;-77
2022/06/26 06:47:49;;;;;;;;;;;;;;;;;;4920610;29;19923;-77
2022/06/26 06:50:54;;;;;;;;;;;;;;;;;;4928134;29;19919;-77
2022/06/26 06:53:20;;;;;;;;;;;;;;;;;;4927889;29;20288;-77
2022/06/26 06:55:46;;;;;;;;;;;;;;;;;;4922122;29;19919;-77
2022/06/26 06:58:14;;;;;;;;;;;;;;;;;;4922821;29;19926;-77
2022/06/26 07:00:40;;;;;;;;;;;;;;;;;;4923029;29;19919;-77
2022/06/26 07:03:08;;;;;;;;;;;;;;;;;;4924368;29;19970;-77
2022/06/26 07:05:34;;;;;;;;;;;;;;;;;;4922901;29;19918;-77
2022/06/26 07:08:01;;;;;;;;;;;;;;;;;;4923520;28;19922;-78
2022/06/26 07:10:27;;;;;;;;;;;;;;;;;;4937850;29;19919;-77
2022/06/26 07:12:53;;;;;;;;;;;;;;;;;;4930154;29;19919;-77
2022/06/26 07:15:19;;;;;;;;;;;;;;;;;;4924202;29;19919;-77
2022/06/26 07:17:44;;;;;;;;;;;;;;;;;;4924616;29;19923;-77
2022/06/26 07:20:09;;;;;;;;;;;;;;;;;;4942151;29;19930;-78
2022/06/26 07:22:35;;;;;;;;;;;;;;;;;;4926456;29;19923;-77
2022/06/26 07:25:10;;;;;;;;;;;;;;;;;;4925388;29;19930;-78
2022/06/26 07:27:44;;;;;;;;;;;;;;;;;;4921820;29;19950;-77
2022/06/26 07:30:09;;;;;;;;;;;;;;;;;;4956166;29;19918;-77
2022/06/26 07:32:47;;;;;;;;;;;;;;;;;;4940499;29;19918;-77
2022/06/26 07:35:13;;;;;;;;;;;;;;;;;;4957083;28;20005;-76
2022/06/26 07:37:38;;;;;;;;;;;;;;;;;;4956541;29;19922;-77
2022/06/26 07:40:05;;;;;;;;;;;;;;;;;;4956506;29;19925;-77
2022/06/26 07:42:30;;;;;;;;;;;;;;;;;;4956124;29;19954;-77
2022/06/26 07:44:56;;;;;;;;;;;;;;;;;;4956382;28;19918;-77
2022/06/26 07:47:29;;;;;;;;;;;;;;;;;;4956144;28;20423;-77
2022/06/26 07:49:59;;;;;;;;;;;;;;;;;;4956174;28;19961;-77
2022/06/26 07:52:24;;;;;;;;;;;;;;;;;;4956155;28;19957;-77
2022/06/26 07:54:50;;;;;;;;;;;;;;;;;;4949162;28;19922;-77
2022/06/26 07:57:15;;;;;;;;;;;;;;;;;;4920672;29;19926;-77
2022/06/26 07:59:42;;;;;;;;;;;;;;;;;;4920806;29;19970;-77
2022/06/26 08:02:07;;;;;;;;;;;;;;;;;;4938149;29;20368;-77
2022/06/26 08:04:33;;;;;;;;;;;;;;;;;;4920242;29;19919;-77
2022/06/26 08:06:59;;;;;;;;;;;;;;;;;;4935635;28;19919;-77
2022/06/26 08:09:24;;;;;;;;;;;;;;;;;;4937199;29;19918;-78
2022/06/26 08:11:50;;;;;;;;;;;;;;;;;;4924759;29;19998;-77
2022/06/26 08:14:15;;;;;;;;;;;;;;;;;;4938499;29;19925;-78
2022/06/26 08:16:40;;;;;;;;;;;;;;;;;;4921424;29;19966;-77
2022/06/26 08:19:06;;;;;;;;;;;;;;;;;;4921005;29;19923;-76
2022/06/26 08:24:16;;;;;;;;;;;;;;;;;;4942946;28;19962;-77
2022/06/26 08:26:41;;;;;;;;;;;;;;;;;;4938291;29;19969;-76
2022/06/26 08:29:07;;;;;;;;;;;;;;;;;;4940018;29;20012;-78
2022/06/26 08:31:33;;;;;;;;;;;;;;;;;;4921099;28;20005;-76
2022/06/26 08:33:58;;;;;;;;;;;;;;;;;;4934374;29;19958;-77
2022/06/26 08:36:23;;;;;;;;;;;;;;;;;;4934698;29;20360;-77
2022/06/26 08:38:49;;;;;;;;;;;;;;;;;;4920366;29;19927;-77
2022/06/26 08:41:15;;;;;;;;;;;;;;;;;;4937134;29;19930;-77
2022/06/26 08:43:40;;;;;;;;;;;;;;;;;;4938170;29;19923;-77
2022/06/26 08:46:06;;;;;;;;;;;;;;;;;;4937285;29;19918;-76
2022/06/26 08:48:38;;;;;;;;;;;;;;;;;;4920138;29;19919;-77
2022/06/26 08:51:04;;;;;;;;;;;;;;;;;;4919320;29;19919;-77
2022/06/26 08:53:30;;;;;;;;;;;;;;;;;;4935740;29;19951;-77
2022/06/26 08:55:56;;;;;;;;;;;;;;;;;;4920032;29;19919;-77
2022/06/26 08:58:22;;;;;;;;;;;;;;;;;;4936284;29;19958;-77
2022/06/26 09:00:47;;;;;;;;;;;;;;;;;;4937153;29;20009;-76
2022/06/26 09:03:13;;;;;;;;;;;;;;;;;;4936960;29;19919;-76
2022/06/26 09:05:38;;;;;;;;;;;;;;;;;;4935962;29;19919;-77
2022/06/26 09:08:04;;;;;;;;;;;;;;;;;;4920032;29;20029;-77
2022/06/26 09:10:34;;;;;;;;;;;;;;;;;;4935812;29;19915;-76
2022/06/26 09:13:00;;;;;;;;;;;;;;;;;;4936246;29;20297;-76
2022/06/26 09:15:25;;;;;;;;;;;;;;;;;;4935542;29;19919;-76
2022/06/26 09:17:55;;;;;;;;;;;;;;;;;;4935298;28;19926;-76
2022/06/26 09:20:20;;;;;;;;;;;;;;;;;;4919853;29;19923;-76
2022/06/26 09:22:55;;;;;;;;;;;;;;;;;;4935526;29;20451;-77
2022/06/26 09:25:32;;;;;;;;;;;;;;;;;;4936735;29;19970;-76
2022/06/26 09:28:04;;;;;;;;;;;;;;;;;;4936303;29;19926;-77
2022/06/26 09:30:29;;;;;;;;;;;;;;;;;;4919355;29;20362;-76
2022/06/26 09:32:54;;;;;;;;;;;;;;;;;;4936045;29;19918;-77
2022/06/26 09:35:24;;;;;;;;;;;;;;;;;;4936952;29;19923;-77
2022/06/26 09:37:49;;;;;;;;;;;;;;;;;;4935677;28;20033;-77
2022/06/26 09:40:18;;;;;;;;;;;;;;;;;;4936660;29;20467;-77
2022/06/26 09:42:43;;;;;;;;;;;;;;;;;;4919598;29;19923;-77
2022/06/26 09:45:08;;;;;;;;;;;;;;;;;;4935352;29;19925;-77
2022/06/26 09:47:35;;;;;;;;;;;;;;;;;;4919451;29;19925;-76
2022/06/26 09:50:01;;;;;;;;;;;;;;;;;;4919595;29;20115;-77
2022/06/26 09:52:28;;;;;;;;;;;;;;;;;;4936003;29;20009;-77
2022/06/26 09:54:54;;;;;;;;;;;;;;;;;;4936157;29;19919;-75
2022/06/26 09:57:19;;;;;;;;;;;;;;;;;;4935938;29;20392;-75
2022/06/26 09:59:45;;;;;;;;;;;;;;;;;;4934086;29;19919;-75
2022/06/26 10:07:52;;;;;;;;;;;;;;;;;;4942793;29;19947;-83
2022/06/26 10:10:19;;;;;;;;;;;;;;;;;;4941900;29;19918;-83
2022/06/26 10:12:48;;;;;;;;;;;;;;;;;;4924707;29;22598;-82
2022/06/26 10:15:15;;;;;;;;;;;;;;;;;;4925904;29;19918;-81
2022/06/26 10:17:46;;;;;;;;;;;;;;;;;;4924484;29;19933;-85
2022/06/26 10:20:15;;;;;;;;;;;;;;;;;;4943072;29;19919;-83
2022/06/26 10:22:43;;;;;;;;;;;;;;;;;;4928716;29;19926;-83
2022/06/26 10:25:20;;;;;;;;;;;;;;;;;;4927953;29;19941;-80
2022/06/26 10:27:46;;;;;;;;;;;;;;;;;;4933372;29;19929;-83
2022/06/26 10:30:16;;;;;;;;;;;;;;;;;;4962409;28;20024;-85
2022/06/26 10:32:42;;;;;;;;;;;;;;;;;;4961957;29;19918;-80
2022/06/26 10:35:08;;;;;;;;;;;;;;;;;;4960645;28;19925;-79
2022/06/26 10:37:44;;;;;;;;;;;;;;;;;;4960909;28;19965;-80
2022/06/26 10:40:12;;;;;;;;;;;;;;;;;;4961954;29;19925;-84
2022/06/26 10:42:53;;;;;;;;;;;;;;;;;;4962032;29;19923;-79
2022/06/26 10:45:30;;;;;;;;;;;;;;;;;;4963022;29;20384;-83
2022/06/26 10:48:01;;;;;;;;;;;;;;;;;;4960940;28;20017;-89
2022/06/26 10:50:33;;;;;;;;;;;;;;;;;;4962919;28;19918;-85
2022/06/26 10:53:15;;;;;;;;;;;;;;;;;;4961010;28;19918;-84
2022/06/26 10:55:42;;;;;;;;;;;;;;;;;;4959508;29;19922;-84
2022/06/26 10:58:07;;;;;;;;;;;;;;;;;;4950287;29;19981;-86
2022/06/26 11:00:33;;;;;;;;;;;;;;;;;;4925595;29;20021;-84
2022/06/26 11:02:58;;;;;;;;;;;;;;;;;;4942313;28;19919;-82
2022/06/26 11:05:27;;;;;;;;;;;;;;;;;;4929222;29;19919;-85
2022/06/26 11:07:55;;;;;;;;;;;;;;;;;;4943923;28;20365;-86
2022/06/26 11:10:22;;;;;;;;;;;;;;;;;;4944502;29;19922;-86
2022/06/26 11:12:49;;;;;;;;;;;;;;;;;;4944548;29;19919;-85
2022/06/26 11:15:22;;;;;;;;;;;;;;;;;;4944480;29;20006;-84
2022/06/26 11:17:53;;;;;;;;;;;;;;;;;;4943465;28;20385;-81
2022/06/26 11:23:10;;;;;;;;;;;;;;;;;;4944500;28;19926;-82
2022/06/26 11:25:35;;;;;;;;;;;;;;;;;;4943925;29;19925;-81
2022/06/26 11:28:01;;;;;;;;;;;;;;;;;;4922786;29;20408;-81
2022/06/26 11:30:26;;;;;;;;;;;;;;;;;;4941339;29;20057;-84
2022/06/26 11:32:52;;;;;;;;;;;;;;;;;;4941287;29;19919;-78
2022/06/26 11:35:23;;;;;;;;;;;;;;;;;;4939267;29;19922;-78
2022/06/26 11:37:49;;;;;;;;;;;;;;;;;;4938254;28;19923;-78
2022/06/26 11:40:15;;;;;;;;;;;;;;;;;;4938533;29;19925;-79
2022/06/26 11:42:41;;;;;;;;;;;;;;;;;;4938203;29;19926;-78
2022/06/26 11:45:06;;;;;;;;;;;;;;;;;;4938639;29;19919;-78
2022/06/26 11:47:34;;;;;;;;;;;;;;;;;;4938345;29;20376;-78
2022/06/26 11:50:00;;;;;;;;;;;;;;;;;;4938241;29;20357;-78
2022/06/26 11:52:25;;;;;;;;;;;;;;;;;;4938423;29;20392;-78
2022/06/26 11:55:00;;;;;;;;;;;;;;;;;;4938961;29;19925;-78
2022/06/26 11:57:26;;;;;;;;;;;;;;;;;;4937133;29;19926;-78
2022/06/26 11:59:51;;;;;;;;;;;;;;;;;;4938103;29;19919;-78
2022/06/26 12:02:21;;;;;;;;;;;;;;;;;;4938067;29;20369;-79
2022/06/26 12:04:56;;;;;;;;;;;;;;;;;;4938224;28;19919;-78
2022/06/26 12:07:21;;;;;;;;;;;;;;;;;;4922404;29;19926;-78
2022/06/26 12:09:47;;;;;;;;;;;;;;;;;;4938395;29;19919;-78
2022/06/26 12:12:12;;;;;;;;;;;;;;;;;;4937365;29;20332;-78
2022/06/26 12:14:43;;;;;;;;;;;;;;;;;;4922373;29;19925;-78
2022/06/26 12:17:08;;;;;;;;;;;;;;;;;;4938898;29;19945;-78
2022/06/26 12:19:39;;;;;;;;;;;;;;;;;;4905913;29;20377;-78
2022/06/26 12:22:05;;;;;;;;;;;;;;;;;;4922234;29;19970;-79
2022/06/26 12:24:30;;;;;;;;;;;;;;;;;;4942458;29;19919;-79
2022/06/26 12:26:58;;;;;;;;;;;;;;;;;;4942096;29;19949;-80
2022/06/26 12:29:25;;;;;;;;;;;;;;;;;;4961343;29;19925;-79
2022/06/26 12:31:50;;;;;;;;;;;;;;;;;;4961336;29;20386;-79
2022/06/26 12:34:16;;;;;;;;;;;;;;;;;;4961025;28;19925;-79
2022/06/26 12:36:41;;;;;;;;;;;;;;;;;;4961771;28;20448;-79
2022/06/26 12:39:11;;;;;;;;;;;;;;;;;;4963175;29;20297;-79
2022/06/26 12:41:37;;;;;;;;;;;;;;;;;;4961186;28;19929;-80
2022/06/26 12:44:03;;;;;;;;;;;;;;;;;;4961485;29;19977;-79
2022/06/26 12:46:29;;;;;;;;;;;;;;;;;;4960629;28;19918;-79
2022/06/26 12:48:55;;;;;;;;;;;;;;;;;;4961438;29;19919;-78
2022/06/26 12:51:21;;;;;;;;;;;;;;;;;;4945920;29;20012;-79
2022/06/26 12:53:47;;;;;;;;;;;;;;;;;;4961254;29;19993;-79
2022/06/26 12:56:13;;;;;;;;;;;;;;;;;;4945147;29;19919;-79
2022/06/26 12:58:40;;;;;;;;;;;;;;;;;;4942903;29;19923;-79
2022/06/26 13:01:06;;;;;;;;;;;;;;;;;;4938850;29;19918;-77
2022/06/26 13:03:31;;;;;;;;;;;;;;;;;;4920147;29;19919;-78
2022/06/26 13:05:57;;;;;;;;;;;;;;;;;;4936907;29;19925;-77
2022/06/26 13:08:22;;;;;;;;;;;;;;;;;;4938628;29;19919;-78
2022/06/26 13:10:48;;;;;;;;;;;;;;;;;;4937487;29;20366;-77
2022/06/26 13:13:14;;;;;;;;;;;;;;;;;;4935698;28;20283;-78
2022/06/26 13:15:39;;;;;;;;;;;;;;;;;;4920196;28;19918;-77
2022/06/26 13:18:05;;;;;;;;;;;;;;;;;;4920090;29;19949;-77
2022/06/26 13:20:31;;;;;;;;;;;;;;;;;;4920324;29;19923;-78
2022/06/26 13:22:57;;;;;;;;;;;;;;;;;;4936960;29;19926;-77
2022/06/26 13:25:22;;;;;;;;;;;;;;;;;;4935689;29;19919;-77
2022/06/26 13:27:47;;;;;;;;;;;;;;;;;;4920419;29;20074;-77
2022/06/26 13:30:13;;;;;;;;;;;;;;;;;;4919274;29;20292;-77
2022/06/26 13:32:38;;;;;;;;;;;;;;;;;;4934262;29;19915;-78
2022/06/26 13:35:05;;;;;;;;;;;;;;;;;;4935773;29;19928;-78
2022/06/26 13:37:30;;;;;;;;;;;;;;;;;;4935900;29;19918;-77
2022/06/26 13:39:55;;;;;;;;;;;;;;;;;;4937560;29;19919;-77
2022/06/26 13:42:21;;;;;;;;;;;;;;;;;;4935538;29;19923;-77
2022/06/26 13:44:46;;;;;;;;;;;;;;;;;;4935855;29;19966;-77
2022/06/26 13:47:12;;;;;;;;;;;;;;;;;;4935977;29;19918;-77
2022/06/26 13:49:40;;;;;;;;;;;;;;;;;;4936225;29;19919;-77
2022/06/26 13:52:05;;;;;;;;;;;;;;;;;;4919868;29;20365;-78
2022/06/26 13:54:31;;;;;;;;;;;;;;;;;;4938620;29;19923;-77
2022/06/26 13:56:57;;;;;;;;;;;;;;;;;;4939405;29;19922;-77
2022/06/26 13:59:22;;;;;;;;;;;;;;;;;;4940550;29;19969;-77
2022/06/26 14:01:47;;;;;;;;;;;;;;;;;;4948192;29;20357;-77
2022/06/26 14:04:13;;;;;;;;;;;;;;;;;;4958692;29;19941;-77
2022/06/26 14:06:38;;;;;;;;;;;;;;;;;;4958832;28;19926;-77
2022/06/26 14:09:06;;;;;;;;;;;;;;;;;;4958583;28;19918;-77
2022/06/26 14:11:31;;;;;;;;;;;;;;;;;;4959440;29;19922;-77
2022/06/26 14:13:56;;;;;;;;;;;;;;;;;;4959783;28;20347;-77
2022/06/26 14:16:21;;;;;;;;;;;;;;;;;;4957645;28;19918;-77
2022/06/26 14:18:47;;;;;;;;;;;;;;;;;;4942317;29;19977;-77
2022/06/26 14:21:12;;;;;;;;;;;;;;;;;;4942520;28;19966;-77
2022/06/26 14:26:21;;;;;;;;;;;;;;;;;;4959197;29;20279;-77
2022/06/26 14:28:47;;;;;;;;;;;;;;;;;;4959266;28;19974;-77
2022/06/26 14:31:13;;;;;;;;;;;;;;;;;;4958417;29;19918;-77
2022/06/26 14:33:39;;;;;;;;;;;;;;;;;;4958179;29;19918;-77
2022/06/26 14:36:06;;;;;;;;;;;;;;;;;;4959132;29;20395;-77
2022/06/26 14:38:31;;;;;;;;;;;;;;;;;;4957428;29;19927;-77
2022/06/26 14:40:57;;;;;;;;;;;;;;;;;;4957698;28;19922;-77
2022/06/26 14:43:23;;;;;;;;;;;;;;;;;;4957914;29;20392;-77
2022/06/26 14:45:48;;;;;;;;;;;;;;;;;;4958248;28;20373;-77
2022/06/26 14:48:14;;;;;;;;;;;;;;;;;;4957588;28;20273;-77
2022/06/26 14:50:39;;;;;;;;;;;;;;;;;;4941812;28;19925;-77
2022/06/26 14:53:04;;;;;;;;;;;;;;;;;;4957787;28;19918;-77
2022/06/26 14:55:30;;;;;;;;;;;;;;;;;;4958029;29;19966;-78
2022/06/26 14:57:57;;;;;;;;;;;;;;;;;;4957751;28;19922;-77
2022/06/26 15:00:22;;;;;;;;;;;;;;;;;;4957808;29;19918;-78
2022/06/26 15:02:47;;;;;;;;;;;;;;;;;;4959206;28;20289;-77
2022/06/26 15:05:13;;;;;;;;;;;;;;;;;;4957206;28;19925;-77
2022/06/26 15:07:38;;;;;;;;;;;;;;;;;;4957286;28;20435;-77
2022/06/26 15:10:04;;;;;;;;;;;;;;;;;;4957399;28;20003;-77
2022/06/26 15:12:29;;;;;;;;;;;;;;;;;;4956899;28;19925;-77
2022/06/26 15:14:55;;;;;;;;;;;;;;;;;;4958578;28;20017;-77
2022/06/26 15:17:20;;;;;;;;;;;;;;;;;;4957554;28;19922;-78
2022/06/26 15:19:45;;;;;;;;;;;;;;;;;;4958735;29;19923;-77
2022/06/26 15:22:11;;;;;;;;;;;;;;;;;;4957799;28;19953;-77
2022/06/26 15:24:36;;;;;;;;;;;;;;;;;;4956547;29;19929;-77
2022/06/26 15:27:02;;;;;;;;;;;;;;;;;;4957297;28;19919;-77
2022/06/26 15:29:27;;;;;;;;;;;;;;;;;;4953911;29;19979;-77
2022/06/26 15:31:52;;;;;;;;;;;;;;;;;;4937985;29;19926;-77
2022/06/26 15:34:18;;;;;;;;;;;;;;;;;;4937987;29;19918;-77
2022/06/26 15:36:43;;;;;;;;;;;;;;;;;;4937706;29;19934;-77
2022/06/26 15:39:08;;;;;;;;;;;;;;;;;;4937811;29;20017;-77
2022/06/26 15:41:34;;;;;;;;;;;;;;;;;;4937606;29;20019;-77
2022/06/26 15:43:59;;;;;;;;;;;;;;;;;;4938585;29;19919;-77
2022/06/26 15:46:25;;;;;;;;;;;;;;;;;;4937371;28;19919;-78
2022/06/26 15:48:50;;;;;;;;;;;;;;;;;;4938195;29;20288;-78
2022/06/26 15:51:16;;;;;;;;;;;;;;;;;;4937884;29;19919;-78
2022/06/26 15:53:42;;;;;;;;;;;;;;;;;;4947040;29;19923;-78
2022/06/26 15:56:07;;;;;;;;;;;;;;;;;;4956796;28;19922;-77
2022/06/26 15:58:33;;;;;;;;;;;;;;;;;;4956375;28;19922;-78
2022/06/26 16:00:58;;;;;;;;;;;;;;;;;;4956533;29;20292;-78
2022/06/26 16:03:24;;;;;;;;;;;;;;;;;;4956560;28;19925;-78
2022/06/26 16:05:49;;;;;;;;;;;;;;;;;;4957229;29;19922;-78
2022/06/26 16:08:14;;;;;;;;;;;;;;;;;;4956614;28;19982;-78
2022/06/26 16:10:39;;;;;;;;;;;;;;;;;;4956486;29;20380;-78
2022/06/26 16:13:05;;;;;;;;;;;;;;;;;;4958077;28;20284;-78
2022/06/26 16:15:30;;;;;;;;;;;;;;;;;;4956651;28;19973;-77
2022/06/26 16:17:58;;;;;;;;;;;;;;;;;;4956287;28;19973;-77
2022/06/26 16:20:23;;;;;;;;;;;;;;;;;;4957550;29;19918;-78
2022/06/26 16:28:16;;;;;;;;;;;;;;;;;;4956033;28;20017;-78
2022/06/26 16:30:42;;;;;;;;;;;;;;;;;;4957450;29;19962;-77
2022/06/26 16:33:07;;;;;;;;;;;;;;;;;;4955948;28;19919;-77
2022/06/26 16:35:32;;;;;;;;;;;;;;;;;;4956043;29;19918;-77
2022/06/26 16:37:58;;;;;;;;;;;;;;;;;;4956769;28;19923;-77
2022/06/26 16:40:23;;;;;;;;;;;;;;;;;;4957531;29;19926;-78
2022/06/26 16:42:49;;;;;;;;;;;;;;;;;;4956290;28;20321;-78
2022/06/26 16:45:15;;;;;;;;;;;;;;;;;;4940217;29;19922;-77
2022/06/26 16:47:41;;;;;;;;;;;;;;;;;;4956304;28;19922;-78
2022/06/26 16:50:07;;;;;;;;;;;;;;;;;;4956642;28;20265;-78
2022/06/26 16:52:32;;;;;;;;;;;;;;;;;;4953059;29;20376;-78
2022/06/26 16:54:59;;;;;;;;;;;;;;;;;;4947184;28;19961;-78
2022/06/26 16:57:25;;;;;;;;;;;;;;;;;;4947922;29;20010;-78
2022/06/26 16:59:50;;;;;;;;;;;;;;;;;;4956205;29;19965;-78
2022/06/26 17:02:16;;;;;;;;;;;;;;;;;;4955149;28;20018;-78
2022/06/26 17:04:41;;;;;;;;;;;;;;;;;;4944085;29;19973;-78
2022/06/26 17:07:07;;;;;;;;;;;;;;;;;;4945645;29;19918;-78